Nasudden, Sweden

3:18 PM CET on January 28, 2015 (GMT +0100)
Visby | Change Station
CLOSE
Current Station
Airport
Location: Visby Flygplats,
Elevation: 154 ft
Nearby Weather Stations

Elev 154 ft 57.66 °N, 18.35 °E | Updated 28 minutes ago

Mostly Cloudy
Mostly Cloudy
37 °F
Feels Like 27 °F
N
22
Wind Variable Wind from SSW

Today
High -- | Low -- °F
--% Chance of Precip.
Yesterday
High -- | Low -- °F
Precip. -- in
7:55 AM 4:05 PM
Waxing Gibbous, 65% visible
Pressure 29.42 in
Visibility 6.2 miles
Clouds Mostly Cloudy 700 ft
Windchill 27 °F
Dew Point 37 °F
Humidity 100%
Rainfall 0.00 in
Snow Depth Not available.
UV 0 out of 12
Pollen Not available.
Air Quality Not available.
Flu Activity Not available.
METAR ESSV 281350Z 21019KT 9999 BKN007 03/03 Q0996 R21/29//73

More Conditions Fewer Conditions

Pressure 29.42 in
Visibility 6.2 miles
Clouds Mostly Cloudy 700 ft
Windchill 27 °F
Dew Point 37 °F
Humidity 100%
Rainfall 0.00 in
Snow Depth Not available.
UV 0 out of 12
Pollen Not available.
Air Quality Not available.
Flu Activity Not available.
METAR ESSV 281350Z 21019KT 9999 BKN007 03/03 Q0996 R21/29//73

More Conditions Fewer Conditions

10-Day Weather Forecast

Almanac

Astronomy

Jan. 28, 2015 Rise Set
Actual Time
Civil Twilight
Nautical Twilight
Astronomical Twilight
Moon
Length of Visible Light
Length of Day
Tomorrow will be .
, % of the Moon is Illuminated

Today's Extremes

Country Highs Country Lows

Community

WunderPhotos

Upload Photos

1,791,148 photos uploaded!

WunderBlogs® & News

Nearby

Air Quality

  Air Quality AQ Index Pollutant
Not available.

Snow Depth

Station Depth Elevation

Earthquake Activity

City Distance Mag. Time & Date
Minimum magnitude displayed is 2.5.

Coastal Water Temperatures

Place Temperature

Nearby Weather Stations